Terminal Aerodrome Forecast
Issued by NWS Denver/Boulder, CO

Home | Current Version | Previous Version | Text Only | Print | Product List | Glossary On
Versions: 1 2 3 4 5 6 7 8 9 10 11 12 13 14 15 16 17 18 19 20 21 22 23 24 25 26 27 28 29 30 31 32 33 34 35 36 37 38 39 40 41 42 43 44 45 46 47 48 49 50
000
FTUS45 KBOU 301328 AAA
TAFDEN
TAF AMD
KDEN 301328Z 3013/3118 05008KT 3SM -RA BR BKN005 OVC015
     FM301600 06010KT P6SM FEW008 BKN015 OVC030
      TEMPO 3016/3019 4SM SHRA BR BKN008 OVC015
     FM301900 02012KT P6SM VCTS SCT025CB OVC035
      TEMPO 3019/3023 5SM -SHRA BKN025
     FM302300 33008KT P6SM SCT035 BKN060 PROB30 3023/3102 -SHRA
      BKN040
     FM310400 24005KT P6SM SCT045 BKN080
     FM311200 31005KT P6SM VCFG SCT006 SCT012
     FM311500 22006KT P6SM SCT100=

USA.gov is the U.S. government's official web portal to all federal, state and local government web resources and services.